sensor_id;sensor_type;location;lat;lon;timestamp;P1;durP1;ratioP1;P2;durP2;ratioP2
29574;SDS011;16507;51.046;6.406;2022-08-21T07:22:03;10.32;;;2.05;;
29574;SDS011;16507;51.046;6.406;2022-08-21T07:24:29;11.52;;;1.95;;
29574;SDS011;16507;51.046;6.406;2022-08-21T07:26:55;4.95;;;2.00;;
29574;SDS011;16507;51.046;6.406;2022-08-21T07:29:24;3.38;;;1.92;;
29574;SDS011;16507;51.046;6.406;2022-08-21T07:31:49;5.57;;;1.88;;
29574;SDS011;16507;51.046;6.406;2022-08-21T07:34:15;4.10;;;1.85;;
29574;SDS011;16507;51.046;6.406;2022-08-21T07:36:40;3.08;;;1.63;;
29574;SDS011;16507;51.046;6.406;2022-08-21T07:39:06;6.07;;;1.85;;
29574;SDS011;16507;51.046;6.406;2022-08-21T07:41:33;6.13;;;2.10;;
29574;SDS011;16507;51.046;6.406;2022-08-21T07:44:00;3.60;;;1.40;;
29574;SDS011;16507;51.046;6.406;2022-08-21T07:46:26;3.90;;;1.65;;
29574;SDS011;16507;51.046;6.406;2022-08-21T07:48:52;3.65;;;1.40;;
29574;SDS011;16507;51.046;6.406;2022-08-21T07:51:19;6.50;;;1.20;;
29574;SDS011;16507;51.046;6.406;2022-08-21T07:53:49;6.95;;;1.40;;
29574;SDS011;16507;51.046;6.406;2022-08-21T07:56:17;7.30;;;1.23;;
29574;SDS011;16507;51.046;6.406;2022-08-21T07:58:43;3.65;;;1.33;;
29574;SDS011;16507;51.046;6.406;2022-08-21T08:01:09;3.67;;;1.25;;
29574;SDS011;16507;51.046;6.406;2022-08-21T08:03:35;2.55;;;1.20;;
29574;SDS011;16507;51.046;6.406;2022-08-21T08:06:01;2.22;;;0.80;;
29574;SDS011;16507;51.046;6.406;2022-08-21T08:08:29;4.65;;;1.48;;
29574;SDS011;16507;51.046;6.406;2022-08-21T08:10:56;5.25;;;1.38;;
29574;SDS011;16507;51.046;6.406;2022-08-21T08:13:22;7.20;;;1.10;;
29574;SDS011;16507;51.046;6.406;2022-08-21T08:15:48;4.30;;;0.95;;
29574;SDS011;16507;51.046;6.406;2022-08-21T08:18:14;2.20;;;1.20;;
29574;SDS011;16507;51.046;6.406;2022-08-21T08:20:39;3.50;;;1.13;;
29574;SDS011;16507;51.046;6.406;2022-08-21T08:23:06;3.28;;;1.00;;
29574;SDS011;16507;51.046;6.406;2022-08-21T08:25:34;5.60;;;1.30;;
29574;SDS011;16507;51.046;6.406;2022-08-21T08:28:00;4.65;;;0.90;;
29574;SDS011;16507;51.046;6.406;2022-08-21T08:30:25;8.98;;;1.10;;
29574;SDS011;16507;51.046;6.406;2022-08-21T08:32:51;2.97;;;1.10;;
29574;SDS011;16507;51.046;6.406;2022-08-21T08:35:17;3.92;;;1.00;;
29574;SDS011;16507;51.046;6.406;2022-08-21T08:37:43;3.65;;;0.80;;
29574;SDS011;16507;51.046;6.406;2022-08-21T08:40:14;2.75;;;0.68;;
29574;SDS011;16507;51.046;6.406;2022-08-21T08:42:46;2.25;;;0.70;;
29574;SDS011;16507;51.046;6.406;2022-08-21T08:45:14;1.48;;;0.60;;
29574;SDS011;16507;51.046;6.406;2022-08-21T08:47:45;1.58;;;0.80;;
29574;SDS011;16507;51.046;6.406;2022-08-21T08:50:20;2.97;;;0.70;;
29574;SDS011;16507;51.046;6.406;2022-08-21T08:52:54;2.45;;;0.93;;
29574;SDS011;16507;51.046;6.406;2022-08-21T08:55:40;2.70;;;0.75;;
29574;SDS011;16507;51.046;6.406;2022-08-21T08:58:10;2.05;;;0.90;;
29574;SDS011;16507;51.046;6.406;2022-08-21T09:00:45;4.05;;;0.98;;
29574;SDS011;16507;51.046;6.406;2022-08-21T09:03:13;3.47;;;0.73;;
29574;SDS011;16507;51.046;6.406;2022-08-21T09:05:45;3.90;;;0.88;;
29574;SDS011;16507;51.046;6.406;2022-08-21T09:08:32;1.77;;;0.70;;
29574;SDS011;16507;51.046;6.406;2022-08-21T09:11:11;1.73;;;0.70;;
29574;SDS011;16507;51.046;6.406;2022-08-21T09:14:33;4.65;;;0.80;;
29574;SDS011;16507;51.046;6.406;2022-08-21T09:22:43;2.40;;;0.90;;
29574;SDS011;16507;51.046;6.406;2022-08-21T09:25:34;3.72;;;0.98;;
29574;SDS011;16507;51.046;6.406;2022-08-21T09:28:08;5.38;;;0.93;;
29574;SDS011;16507;51.046;6.406;2022-08-21T09:30:37;6.30;;;1.20;;
29574;SDS011;16507;51.046;6.406;2022-08-21T09:33:05;4.47;;;0.85;;
29574;SDS011;16507;51.046;6.406;2022-08-21T09:35:31;3.00;;;0.85;;
29574;SDS011;16507;51.046;6.406;2022-08-21T09:37:59;3.33;;;1.05;;
29574;SDS011;16507;51.046;6.406;2022-08-21T09:42:57;2.72;;;0.80;;
29574;SDS011;16507;51.046;6.406;2022-08-21T09:47:54;3.97;;;0.90;;
29574;SDS011;16507;51.046;6.406;2022-08-21T09:50:24;3.13;;;0.93;;
29574;SDS011;16507;51.046;6.406;2022-08-21T09:52:53;2.60;;;0.80;;
29574;SDS011;16507;51.046;6.406;2022-08-21T09:55:24;3.95;;;1.13;;
29574;SDS011;16507;51.046;6.406;2022-08-21T09:58:14;2.47;;;1.02;;
29574;SDS011;16507;51.046;6.406;2022-08-21T10:00:40;4.50;;;1.15;;
29574;SDS011;16507;51.046;6.406;2022-08-21T10:03:20;2.50;;;0.80;;
29574;SDS011;16507;51.046;6.406;2022-08-21T10:05:54;6.25;;;1.17;;
29574;SDS011;16507;51.046;6.406;2022-08-21T10:08:24;11.05;;;1.20;;
29574;SDS011;16507;51.046;6.406;2022-08-21T10:10:53;3.00;;;1.40;;
29574;SDS011;16507;51.046;6.406;2022-08-21T10:24:32;10.23;;;1.77;;
29574;SDS011;16507;51.046;6.406;2022-08-21T10:33:06;4.50;;;1.20;;
29574;SDS011;16507;51.046;6.406;2022-08-21T10:35:25;4.88;;;1.13;;
29574;SDS011;16507;51.046;6.406;2022-08-21T10:49:52;1.80;;;0.82;;
29574;SDS011;16507;51.046;6.406;2022-08-21T10:56:19;4.57;;;1.02;;
29574;SDS011;16507;51.046;6.406;2022-08-21T11:01:28;3.60;;;1.27;;
29574;SDS011;16507;51.046;6.406;2022-08-21T11:04:20;3.28;;;1.15;;
29574;SDS011;16507;51.046;6.406;2022-08-21T11:07:10;4.78;;;1.42;;
29574;SDS011;16507;51.046;6.406;2022-08-21T11:09:47;2.83;;;1.00;;
29574;SDS011;16507;51.046;6.406;2022-08-21T11:15:07;5.63;;;1.77;;
29574;SDS011;16507;51.046;6.406;2022-08-21T11:17:47;6.72;;;1.30;;
29574;SDS011;16507;51.046;6.406;2022-08-21T11:20:33;3.53;;;1.15;;
29574;SDS011;16507;51.046;6.406;2022-08-21T11:23:22;4.47;;;0.90;;
29574;SDS011;16507;51.046;6.406;2022-08-21T11:25:53;3.92;;;1.08;;
29574;SDS011;16507;51.046;6.406;2022-08-21T11:28:36;8.57;;;1.27;;
29574;SDS011;16507;51.046;6.406;2022-08-21T11:39:16;2.90;;;0.90;;
29574;SDS011;16507;51.046;6.406;2022-08-21T11:42:04;4.45;;;0.85;;
29574;SDS011;16507;51.046;6.406;2022-08-21T11:47:56;3.03;;;0.93;;
29574;SDS011;16507;51.046;6.406;2022-08-21T11:50:27;3.28;;;1.05;;
29574;SDS011;16507;51.046;6.406;2022-08-21T11:58:25;2.15;;;0.80;;
29574;SDS011;16507;51.046;6.406;2022-08-21T12:00:54;5.53;;;0.90;;
29574;SDS011;16507;51.046;6.406;2022-08-21T12:05:55;8.57;;;1.13;;
29574;SDS011;16507;51.046;6.406;2022-08-21T12:11:20;5.90;;;0.95;;
29574;SDS011;16507;51.046;6.406;2022-08-21T12:13:54;7.65;;;1.10;;
29574;SDS011;16507;51.046;6.406;2022-08-21T12:16:36;3.10;;;0.70;;
29574;SDS011;16507;51.046;6.406;2022-08-21T12:19:07;3.72;;;1.38;;
29574;SDS011;16507;51.046;6.406;2022-08-21T12:27:00;1.95;;;0.70;;
29574;SDS011;16507;51.046;6.406;2022-08-21T12:29:45;6.00;;;1.10;;
29574;SDS011;16507;51.046;6.406;2022-08-21T12:34:40;2.70;;;0.73;;
29574;SDS011;16507;51.046;6.406;2022-08-21T12:39:52;1.20;;;0.60;;
29574;SDS011;16507;51.046;6.406;2022-08-21T12:42:23;3.35;;;1.08;;
29574;SDS011;16507;51.046;6.406;2022-08-21T12:44:58;3.40;;;1.00;;
29574;SDS011;16507;51.046;6.406;2022-08-21T12:47:33;1.60;;;0.80;;
29574;SDS011;16507;51.046;6.406;2022-08-21T12:50:31;2.95;;;0.77;;
29574;SDS011;16507;51.046;6.406;2022-08-21T12:55:53;1.67;;;0.70;;
29574;SDS011;16507;51.046;6.406;2022-08-21T12:58:24;3.10;;;0.82;;
29574;SDS011;16507;51.046;6.406;2022-08-21T13:00:52;2.88;;;1.00;;
29574;SDS011;16507;51.046;6.406;2022-08-21T13:03:21;3.63;;;0.93;;
29574;SDS011;16507;51.046;6.406;2022-08-21T13:05:48;10.23;;;0.90;;
29574;SDS011;16507;51.046;6.406;2022-08-21T13:08:16;6.05;;;0.80;;
29574;SDS011;16507;51.046;6.406;2022-08-21T13:10:44;2.33;;;1.00;;
29574;SDS011;16507;51.046;6.406;2022-08-21T13:13:15;1.17;;;0.80;;
29574;SDS011;16507;51.046;6.406;2022-08-21T13:15:44;2.25;;;0.70;;
29574;SDS011;16507;51.046;6.406;2022-08-21T13:18:18;2.72;;;1.00;;
29574;SDS011;16507;51.046;6.406;2022-08-21T13:20:46;9.25;;;0.93;;
29574;SDS011;16507;51.046;6.406;2022-08-21T13:23:45;1.67;;;0.70;;
29574;SDS011;16507;51.046;6.406;2022-08-21T13:26:21;4.23;;;0.83;;
29574;SDS011;16507;51.046;6.406;2022-08-21T13:28:47;1.45;;;0.73;;
29574;SDS011;16507;51.046;6.406;2022-08-21T13:31:20;1.88;;;0.93;;
29574;SDS011;16507;51.046;6.406;2022-08-21T13:33:51;3.42;;;0.80;;
29574;SDS011;16507;51.046;6.406;2022-08-21T13:36:29;2.05;;;0.80;;
29574;SDS011;16507;51.046;6.406;2022-08-21T13:38:59;4.97;;;1.25;;
29574;SDS011;16507;51.046;6.406;2022-08-21T13:41:26;2.65;;;0.60;;
29574;SDS011;16507;51.046;6.406;2022-08-21T13:44:01;1.90;;;0.60;;
29574;SDS011;16507;51.046;6.406;2022-08-21T13:46:31;1.20;;;0.60;;
29574;SDS011;16507;51.046;6.406;2022-08-21T13:48:59;3.38;;;0.90;;
29574;SDS011;16507;51.046;6.406;2022-08-21T13:51:27;1.08;;;0.70;;
29574;SDS011;16507;51.046;6.406;2022-08-21T13:53:54;1.80;;;0.80;;
29574;SDS011;16507;51.046;6.406;2022-08-21T13:56:24;1.40;;;0.70;;
29574;SDS011;16507;51.046;6.406;2022-08-21T13:58:56;1.20;;;0.77;;
29574;SDS011;16507;51.046;6.406;2022-08-21T14:02:10;1.85;;;0.70;;
29574;SDS011;16507;51.046;6.406;2022-08-21T14:04:18;1.80;;;0.80;;
29574;SDS011;16507;51.046;6.406;2022-08-21T14:06:44;1.30;;;0.80;;
29574;SDS011;16507;51.046;6.406;2022-08-21T14:09:21;1.67;;;0.77;;
29574;SDS011;16507;51.046;6.406;2022-08-21T14:11:50;1.02;;;0.70;;
29574;SDS011;16507;51.046;6.406;2022-08-21T14:14:29;2.10;;;0.88;;
29574;SDS011;16507;51.046;6.406;2022-08-21T14:17:02;1.98;;;0.75;;
29574;SDS011;16507;51.046;6.406;2022-08-21T14:27:54;0.98;;;0.60;;
29574;SDS011;16507;51.046;6.406;2022-08-21T14:32:58;5.40;;;0.82;;
29574;SDS011;16507;51.046;6.406;2022-08-21T14:35:25;4.63;;;1.08;;
29574;SDS011;16507;51.046;6.406;2022-08-21T14:37:51;1.48;;;1.00;;
29574;SDS011;16507;51.046;6.406;2022-08-21T14:40:18;4.68;;;0.77;;
29574;SDS011;16507;51.046;6.406;2022-08-21T14:42:46;2.47;;;0.90;;
29574;SDS011;16507;51.046;6.406;2022-08-21T14:45:18;1.25;;;0.77;;
29574;SDS011;16507;51.046;6.406;2022-08-21T14:47:48;1.90;;;0.90;;
29574;SDS011;16507;51.046;6.406;2022-08-21T14:50:14;6.55;;;1.08;;
29574;SDS011;16507;51.046;6.406;2022-08-21T14:52:41;1.77;;;0.80;;
29574;SDS011;16507;51.046;6.406;2022-08-21T14:55:08;3.75;;;0.90;;
29574;SDS011;16507;51.046;6.406;2022-08-21T14:57:39;2.05;;;0.88;;
29574;SDS011;16507;51.046;6.406;2022-08-21T15:00:05;1.75;;;0.70;;
29574;SDS011;16507;51.046;6.406;2022-08-21T15:02:32;1.67;;;0.70;;
29574;SDS011;16507;51.046;6.406;2022-08-21T15:04:58;1.58;;;0.60;;
29574;SDS011;16507;51.046;6.406;2022-08-21T15:07:23;4.03;;;1.23;;
29574;SDS011;16507;51.046;6.406;2022-08-21T15:09:49;1.27;;;0.90;;
29574;SDS011;16507;51.046;6.406;2022-08-21T15:12:15;2.05;;;0.82;;
29574;SDS011;16507;51.046;6.406;2022-08-21T15:14:41;1.10;;;0.70;;
29574;SDS011;16507;51.046;6.406;2022-08-21T15:17:07;3.10;;;0.75;;
29574;SDS011;16507;51.046;6.406;2022-08-21T15:19:34;13.82;;;1.27;;
29574;SDS011;16507;51.046;6.406;2022-08-21T15:22:00;1.40;;;0.73;;
29574;SDS011;16507;51.046;6.406;2022-08-21T15:24:26;3.65;;;0.85;;
29574;SDS011;16507;51.046;6.406;2022-08-21T15:26:52;2.28;;;0.88;;
29574;SDS011;16507;51.046;6.406;2022-08-21T15:29:19;2.80;;;1.02;;
29574;SDS011;16507;51.046;6.406;2022-08-21T15:32:15;1.25;;;0.70;;
29574;SDS011;16507;51.046;6.406;2022-08-21T15:34:53;2.05;;;1.10;;
29574;SDS011;16507;51.046;6.406;2022-08-21T15:37:21;4.53;;;1.05;;
29574;SDS011;16507;51.046;6.406;2022-08-21T15:39:47;2.13;;;0.82;;
29574;SDS011;16507;51.046;6.406;2022-08-21T15:42:13;3.53;;;1.00;;
29574;SDS011;16507;51.046;6.406;2022-08-21T15:44:40;1.75;;;0.80;;
29574;SDS011;16507;51.046;6.406;2022-08-21T15:47:11;2.10;;;0.80;;
29574;SDS011;16507;51.046;6.406;2022-08-21T15:49:41;1.60;;;0.80;;
29574;SDS011;16507;51.046;6.406;2022-08-21T15:52:10;1.40;;;0.80;;
29574;SDS011;16507;51.046;6.406;2022-08-21T15:54:40;1.45;;;0.65;;
29574;SDS011;16507;51.046;6.406;2022-08-21T15:57:06;1.23;;;0.70;;
29574;SDS011;16507;51.046;6.406;2022-08-21T15:59:38;1.30;;;0.80;;
29574;SDS011;16507;51.046;6.406;2022-08-21T16:02:07;2.55;;;0.75;;
29574;SDS011;16507;51.046;6.406;2022-08-21T16:04:37;1.13;;;0.70;;
29574;SDS011;16507;51.046;6.406;2022-08-21T16:07:02;1.95;;;0.63;;
29574;SDS011;16507;51.046;6.406;2022-08-21T16:09:28;3.67;;;0.85;;
29574;SDS011;16507;51.046;6.406;2022-08-21T16:11:54;2.67;;;0.80;;
29574;SDS011;16507;51.046;6.406;2022-08-21T16:14:19;4.43;;;1.10;;
29574;SDS011;16507;51.046;6.406;2022-08-21T16:16:45;1.70;;;0.73;;
29574;SDS011;16507;51.046;6.406;2022-08-21T16:19:11;2.10;;;0.90;;
29574;SDS011;16507;51.046;6.406;2022-08-21T16:21:38;2.45;;;0.70;;
29574;SDS011;16507;51.046;6.406;2022-08-21T16:24:04;1.60;;;0.70;;
29574;SDS011;16507;51.046;6.406;2022-08-21T16:26:30;2.15;;;0.82;;
29574;SDS011;16507;51.046;6.406;2022-08-21T16:28:56;2.22;;;0.95;;
29574;SDS011;16507;51.046;6.406;2022-08-21T16:31:25;3.67;;;0.80;;
29574;SDS011;16507;51.046;6.406;2022-08-21T16:33:51;2.15;;;0.77;;
29574;SDS011;16507;51.046;6.406;2022-08-21T16:36:19;3.45;;;0.73;;
29574;SDS011;16507;51.046;6.406;2022-08-21T16:38:46;1.88;;;0.63;;
29574;SDS011;16507;51.046;6.406;2022-08-21T16:41:13;1.13;;;0.80;;
29574;SDS011;16507;51.046;6.406;2022-08-21T16:43:42;1.77;;;0.70;;
29574;SDS011;16507;51.046;6.406;2022-08-21T16:46:09;2.28;;;0.93;;
29574;SDS011;16507;51.046;6.406;2022-08-21T16:48:36;3.60;;;0.98;;
29574;SDS011;16507;51.046;6.406;2022-08-21T16:51:02;3.75;;;0.85;;
29574;SDS011;16507;51.046;6.406;2022-08-21T16:53:29;4.88;;;1.52;;
29574;SDS011;16507;51.046;6.406;2022-08-21T16:55:54;2.78;;;0.98;;
29574;SDS011;16507;51.046;6.406;2022-08-21T16:58:25;2.50;;;0.60;;
29574;SDS011;16507;51.046;6.406;2022-08-21T17:00:56;2.20;;;0.80;;
29574;SDS011;16507;51.046;6.406;2022-08-21T17:03:33;3.60;;;0.90;;
29574;SDS011;16507;51.046;6.406;2022-08-21T17:06:05;1.98;;;0.88;;
29574;SDS011;16507;51.046;6.406;2022-08-21T17:08:31;3.45;;;1.10;;
29574;SDS011;16507;51.046;6.406;2022-08-21T17:10:57;3.85;;;1.00;;
29574;SDS011;16507;51.046;6.406;2022-08-21T17:13:24;1.92;;;0.75;;
29574;SDS011;16507;51.046;6.406;2022-08-21T17:15:50;1.85;;;0.73;;
29574;SDS011;16507;51.046;6.406;2022-08-21T17:18:16;1.77;;;0.60;;
29574;SDS011;16507;51.046;6.406;2022-08-21T17:20:44;2.85;;;0.52;;
29574;SDS011;16507;51.046;6.406;2022-08-21T17:23:11;2.70;;;0.82;;
29574;SDS011;16507;51.046;6.406;2022-08-21T17:25:37;2.22;;;0.90;;
29574;SDS011;16507;51.046;6.406;2022-08-21T17:28:05;2.13;;;1.00;;
29574;SDS011;16507;51.046;6.406;2022-08-21T17:30:32;3.45;;;0.90;;
29574;SDS011;16507;51.046;6.406;2022-08-21T17:32:58;3.17;;;0.80;;
29574;SDS011;16507;51.046;6.406;2022-08-21T17:35:25;4.20;;;1.00;;
29574;SDS011;16507;51.046;6.406;2022-08-21T17:37:50;2.70;;;0.88;;
29574;SDS011;16507;51.046;6.406;2022-08-21T17:40:17;3.28;;;0.95;;
29574;SDS011;16507;51.046;6.406;2022-08-21T17:42:44;1.88;;;0.68;;
29574;SDS011;16507;51.046;6.406;2022-08-21T17:45:12;2.90;;;0.75;;
29574;SDS011;16507;51.046;6.406;2022-08-21T17:47:42;4.65;;;1.00;;
29574;SDS011;16507;51.046;6.406;2022-08-21T17:50:13;3.30;;;0.80;;
29574;SDS011;16507;51.046;6.406;2022-08-21T17:52:40;2.50;;;0.77;;
29574;SDS011;16507;51.046;6.406;2022-08-21T17:55:08;6.53;;;1.20;;
29574;SDS011;16507;51.046;6.406;2022-08-21T17:57:38;3.92;;;1.02;;
29574;SDS011;16507;51.046;6.406;2022-08-21T18:00:11;9.95;;;1.05;;
29574;SDS011;16507;51.046;6.406;2022-08-21T18:05:06;4.47;;;1.10;;
29574;SDS011;16507;51.046;6.406;2022-08-21T18:07:33;3.08;;;1.20;;
29574;SDS011;16507;51.046;6.406;2022-08-21T18:10:04;1.75;;;1.00;;
29574;SDS011;16507;51.046;6.406;2022-08-21T18:12:32;2.45;;;0.82;;
29574;SDS011;16507;51.046;6.406;2022-08-21T18:14:58;2.25;;;0.90;;
29574;SDS011;16507;51.046;6.406;2022-08-21T18:17:25;4.15;;;1.10;;
29574;SDS011;16507;51.046;6.406;2022-08-21T18:19:53;5.45;;;0.85;;
29574;SDS011;16507;51.046;6.406;2022-08-21T18:22:20;3.05;;;1.00;;
29574;SDS011;16507;51.046;6.406;2022-08-21T18:24:45;4.90;;;0.80;;
29574;SDS011;16507;51.046;6.406;2022-08-21T18:27:11;3.58;;;0.90;;
29574;SDS011;16507;51.046;6.406;2022-08-21T18:29:39;28.65;;;2.03;;
29574;SDS011;16507;51.046;6.406;2022-08-21T18:32:05;6.88;;;0.77;;
29574;SDS011;16507;51.046;6.406;2022-08-21T18:34:33;5.45;;;1.17;;
29574;SDS011;16507;51.046;6.406;2022-08-21T18:37:03;9.95;;;1.10;;
29574;SDS011;16507;51.046;6.406;2022-08-21T18:39:29;4.68;;;1.08;;
29574;SDS011;16507;51.046;6.406;2022-08-21T18:41:55;3.67;;;0.90;;
29574;SDS011;16507;51.046;6.406;2022-08-21T18:44:23;14.80;;;1.30;;
29574;SDS011;16507;51.046;6.406;2022-08-21T18:47:01;22.80;;;2.05;;
29574;SDS011;16507;51.046;6.406;2022-08-21T18:49:30;27.55;;;2.17;;
29574;SDS011;16507;51.046;6.406;2022-08-21T18:51:55;27.88;;;1.95;;
29574;SDS011;16507;51.046;6.406;2022-08-21T18:54:21;28.83;;;2.00;;
29574;SDS011;16507;51.046;6.406;2022-08-21T18:56:47;6.55;;;1.20;;
29574;SDS011;16507;51.046;6.406;2022-08-21T18:59:13;21.92;;;1.65;;
29574;SDS011;16507;51.046;6.406;2022-08-21T19:01:39;19.88;;;1.60;;
29574;SDS011;16507;51.046;6.406;2022-08-21T19:04:06;10.15;;;1.42;;
29574;SDS011;16507;51.046;6.406;2022-08-21T19:06:32;7.32;;;1.33;;
29574;SDS011;16507;51.046;6.406;2022-08-21T19:09:00;15.85;;;1.45;;
29574;SDS011;16507;51.046;6.406;2022-08-21T19:11:31;4.22;;;1.27;;
29574;SDS011;16507;51.046;6.406;2022-08-21T19:13:59;6.22;;;1.40;;
29574;SDS011;16507;51.046;6.406;2022-08-21T19:16:26;20.85;;;1.40;;
29574;SDS011;16507;51.046;6.406;2022-08-21T19:18:52;7.25;;;1.20;;
29574;SDS011;16507;51.046;6.406;2022-08-21T19:21:18;6.13;;;1.45;;
29574;SDS011;16507;51.046;6.406;2022-08-21T19:23:44;7.50;;;1.42;;
29574;SDS011;16507;51.046;6.406;2022-08-21T19:26:12;3.70;;;1.02;;
29574;SDS011;16507;51.046;6.406;2022-08-21T19:28:42;6.20;;;0.95;;
29574;SDS011;16507;51.046;6.406;2022-08-21T19:33:41;5.47;;;1.15;;
29574;SDS011;16507;51.046;6.406;2022-08-21T19:36:10;9.05;;;0.95;;
29574;SDS011;16507;51.046;6.406;2022-08-21T19:38:36;8.40;;;1.05;;
29574;SDS011;16507;51.046;6.406;2022-08-21T19:41:02;6.90;;;1.00;;
29574;SDS011;16507;51.046;6.406;2022-08-21T19:43:30;5.43;;;1.05;;
29574;SDS011;16507;51.046;6.406;2022-08-21T19:45:57;10.02;;;1.35;;
29574;SDS011;16507;51.046;6.406;2022-08-21T19:48:24;7.78;;;1.30;;
29574;SDS011;16507;51.046;6.406;2022-08-21T19:50:50;13.90;;;1.70;;
29574;SDS011;16507;51.046;6.406;2022-08-21T19:53:17;6.38;;;1.00;;
29574;SDS011;16507;51.046;6.406;2022-08-21T19:55:43;9.75;;;1.70;;
29574;SDS011;16507;51.046;6.406;2022-08-21T20:01:11;3.30;;;1.40;;
29574;SDS011;16507;51.046;6.406;2022-08-21T20:03:37;17.23;;;1.33;;
29574;SDS011;16507;51.046;6.406;2022-08-21T20:06:03;8.02;;;1.02;;
29574;SDS011;16507;51.046;6.406;2022-08-21T20:08:29;4.28;;;0.93;;
29574;SDS011;16507;51.046;6.406;2022-08-21T20:10:56;2.47;;;1.00;;
29574;SDS011;16507;51.046;6.406;2022-08-21T20:13:23;3.50;;;0.90;;
29574;SDS011;16507;51.046;6.406;2022-08-21T20:15:50;8.35;;;0.98;;
29574;SDS011;16507;51.046;6.406;2022-08-21T20:18:17;7.22;;;1.48;;
29574;SDS011;16507;51.046;6.406;2022-08-21T20:20:43;4.47;;;1.30;;
29574;SDS011;16507;51.046;6.406;2022-08-21T20:23:09;4.32;;;1.23;;
29574;SDS011;16507;51.046;6.406;2022-08-21T20:25:35;2.08;;;0.98;;
29574;SDS011;16507;51.046;6.406;2022-08-21T20:28:01;12.45;;;1.17;;
29574;SDS011;16507;51.046;6.406;2022-08-21T20:30:28;13.15;;;1.70;;
29574;SDS011;16507;51.046;6.406;2022-08-21T20:32:54;12.55;;;1.95;;
29574;SDS011;16507;51.046;6.406;2022-08-21T20:35:19;5.65;;;1.17;;
29574;SDS011;16507;51.046;6.406;2022-08-21T20:37:45;4.82;;;1.17;;
29574;SDS011;16507;51.046;6.406;2022-08-21T20:40:12;81.68;;;4.85;;
29574;SDS011;16507;51.046;6.406;2022-08-21T20:42:39;7.10;;;1.50;;
29574;SDS011;16507;51.046;6.406;2022-08-21T20:45:11;3.58;;;1.48;;
29574;SDS011;16507;51.046;6.406;2022-08-21T20:47:45;5.72;;;1.63;;
29574;SDS011;16507;51.046;6.406;2022-08-21T20:50:10;3.00;;;1.08;;
29574;SDS011;16507;51.046;6.406;2022-08-21T20:52:41;12.68;;;2.35;;
29574;SDS011;16507;51.046;6.406;2022-08-21T20:55:11;3.97;;;1.77;;
29574;SDS011;16507;51.046;6.406;2022-08-21T20:57:56;6.20;;;1.63;;
29574;SDS011;16507;51.046;6.406;2022-08-21T21:00:27;8.85;;;1.63;;
29574;SDS011;16507;51.046;6.406;2022-08-21T21:05:54;3.40;;;1.40;;
29574;SDS011;16507;51.046;6.406;2022-08-21T21:08:27;4.28;;;1.60;;
29574;SDS011;16507;51.046;6.406;2022-08-21T21:11:07;5.72;;;1.33;;
29574;SDS011;16507;51.046;6.406;2022-08-21T21:14:57;6.25;;;1.33;;
29574;SDS011;16507;51.046;6.406;2022-08-21T21:17:05;7.85;;;1.73;;
29574;SDS011;16507;51.046;6.406;2022-08-21T21:19:48;6.55;;;1.85;;
29574;SDS011;16507;51.046;6.406;2022-08-21T21:22:28;10.55;;;1.63;;
29574;SDS011;16507;51.046;6.406;2022-08-21T21:27:28;7.57;;;1.95;;
29574;SDS011;16507;51.046;6.406;2022-08-21T21:30:06;7.32;;;1.52;;
29574;SDS011;16507;51.046;6.406;2022-08-21T21:32:40;2.67;;;1.45;;
29574;SDS011;16507;51.046;6.406;2022-08-21T21:35:05;7.90;;;1.95;;
29574;SDS011;16507;51.046;6.406;2022-08-21T21:37:45;2.83;;;1.35;;
29574;SDS011;16507;51.046;6.406;2022-08-21T21:45:41;8.73;;;1.95;;
29574;SDS011;16507;51.046;6.406;2022-08-21T21:54:43;9.60;;;2.47;;
29574;SDS011;16507;51.046;6.406;2022-08-21T22:05:18;8.05;;;3.65;;
29574;SDS011;16507;51.046;6.406;2022-08-21T22:07:54;5.15;;;4.50;;
29574;SDS011;16507;51.046;6.406;2022-08-21T22:13:08;5.00;;;4.05;;
29574;SDS011;16507;51.046;6.406;2022-08-21T22:15:46;22.98;;;5.28;;
29574;SDS011;16507;51.046;6.406;2022-08-21T22:18:16;15.35;;;4.30;;
29574;SDS011;16507;51.046;6.406;2022-08-21T22:20:56;13.20;;;4.22;;
29574;SDS011;16507;51.046;6.406;2022-08-21T22:23:37;12.10;;;3.92;;
29574;SDS011;16507;51.046;6.406;2022-08-21T22:26:09;21.45;;;5.18;;
29574;SDS011;16507;51.046;6.406;2022-08-21T22:28:40;5.40;;;4.20;;
29574;SDS011;16507;51.046;6.406;2022-08-21T22:33:58;11.95;;;4.13;;
29574;SDS011;16507;51.046;6.406;2022-08-21T22:36:28;10.75;;;4.07;;
29574;SDS011;16507;51.046;6.406;2022-08-21T22:38:56;9.07;;;3.42;;
29574;SDS011;16507;51.046;6.406;2022-08-21T22:41:27;10.95;;;3.10;;
29574;SDS011;16507;51.046;6.406;2022-08-21T22:43:58;4.00;;;2.47;;
29574;SDS011;16507;51.046;6.406;2022-08-21T22:46:42;8.05;;;2.30;;
29574;SDS011;16507;51.046;6.406;2022-08-21T22:49:23;6.65;;;2.15;;
29574;SDS011;16507;51.046;6.406;2022-08-21T22:52:10;8.68;;;1.88;;
29574;SDS011;16507;51.046;6.406;2022-08-21T22:54:40;4.57;;;1.75;;
29574;SDS011;16507;51.046;6.406;2022-08-21T22:57:09;6.65;;;2.47;;
29574;SDS011;16507;51.046;6.406;2022-08-21T22:59:50;10.18;;;2.13;;
29574;SDS011;16507;51.046;6.406;2022-08-21T23:02:29;7.30;;;2.15;;
29574;SDS011;16507;51.046;6.406;2022-08-21T23:05:18;3.47;;;1.75;;
29574;SDS011;16507;51.046;6.406;2022-08-21T23:07:44;3.65;;;2.25;;
29574;SDS011;16507;51.046;6.406;2022-08-21T23:10:27;4.95;;;1.60;;
29574;SDS011;16507;51.046;6.406;2022-08-21T23:13:02;10.15;;;1.58;;
29574;SDS011;16507;51.046;6.406;2022-08-21T23:15:32;13.20;;;1.70;;
29574;SDS011;16507;51.046;6.406;2022-08-21T23:18:17;10.48;;;2.20;;
29574;SDS011;16507;51.046;6.406;2022-08-21T23:23:26;11.18;;;1.60;;
29574;SDS011;16507;51.046;6.406;2022-08-21T23:26:54;18.60;;;1.98;;
29574;SDS011;16507;51.046;6.406;2022-08-21T23:29:25;6.75;;;1.65;;
29574;SDS011;16507;51.046;6.406;2022-08-21T23:32:21;23.75;;;2.03;;
29574;SDS011;16507;51.046;6.406;2022-08-21T23:37:50;8.07;;;2.17;;
29574;SDS011;16507;51.046;6.406;2022-08-21T23:40:43;8.30;;;2.70;;
29574;SDS011;16507;51.046;6.406;2022-08-21T23:51:34;23.08;;;2.15;;
29574;SDS011;16507;51.046;6.406;2022-08-21T23:57:09;5.10;;;1.80;;
